createdAt,value
2023-04-14T00:06:41.382Z,5.01
2023-04-14T00:16:41.497Z,4.95
2023-04-14T00:26:41.715Z,4.76
2023-04-14T00:36:41.818Z,4.80
2023-04-14T00:46:42.079Z,5.02
2023-04-14T00:56:42.135Z,5.09
2023-04-14T01:06:42.368Z,5.16
2023-04-14T01:16:42.557Z,5.34
2023-04-14T01:26:42.782Z,5.34
2023-04-14T01:36:42.958Z,5.45
2023-04-14T01:46:43.241Z,5.30
2023-04-14T01:56:43.316Z,5.16
2023-04-14T02:06:43.576Z,5.17
2023-04-14T02:16:43.809Z,5.19
2023-04-14T02:26:43.979Z,5.22
2023-04-14T02:36:44.154Z,5.07
2023-04-14T02:46:44.307Z,5.05
2023-04-14T02:56:44.968Z,5.14
2023-04-14T03:06:44.667Z,5.27
2023-04-14T03:16:44.855Z,5.23
2023-04-14T03:26:45.086Z,5.30
2023-04-14T03:36:45.259Z,5.31
2023-04-14T03:46:45.539Z,5.17
2023-04-14T03:56:45.596Z,4.98
2023-04-14T04:06:45.849Z,4.64
2023-04-14T04:16:46.053Z,4.36
2023-04-14T04:26:46.174Z,4.39
2023-04-14T04:36:46.344Z,4.21
2023-04-14T04:46:46.573Z,4.06
2023-04-14T04:56:46.748Z,4.14
2023-04-14T05:06:46.978Z,3.98
2023-04-14T05:16:47.193Z,4.00
2023-04-14T05:26:57.519Z,4.03
2023-04-14T05:36:48.610Z,3.80
2023-04-14T05:46:47.973Z,3.83
2023-04-14T05:56:47.973Z,3.96
2023-04-14T06:06:48.489Z,4.12
2023-04-14T06:16:48.418Z,4.39
2023-04-14T06:26:48.519Z,4.88
2023-04-14T06:36:48.844Z,5.98
2023-04-14T06:46:48.988Z,6.44
2023-04-14T06:56:49.143Z,6.44
2023-04-14T07:06:49.300Z,6.71
2023-04-14T07:16:49.494Z,6.76
2023-04-14T07:26:49.637Z,7.56
2023-04-14T07:36:50.039Z,7.97
2023-04-14T07:46:50.042Z,8.40
2023-04-14T07:56:50.118Z,8.25
2023-04-14T08:06:50.596Z,8.66
2023-04-14T08:16:50.900Z,8.15
2023-04-14T08:26:50.843Z,8.18
2023-04-14T08:36:52.851Z,8.48
2023-04-14T08:46:51.088Z,8.63
2023-04-14T08:56:51.544Z,8.87
2023-04-14T09:06:51.380Z,9.48
2023-04-14T09:16:51.633Z,12.66
2023-04-14T09:26:51.629Z,14.24
2023-04-14T09:36:51.783Z,11.75
2023-04-14T09:46:51.965Z,11.90
2023-04-14T09:56:52.123Z,12.70
2023-04-14T10:06:52.395Z,13.98
2023-04-14T10:16:52.662Z,13.96
2023-04-14T10:26:52.950Z,13.03
2023-04-14T10:36:52.775Z,15.78
2023-04-14T10:46:53.281Z,16.60
2023-04-14T10:56:53.139Z,13.02
2023-04-14T11:06:53.364Z,12.75
2023-04-14T11:17:02.644Z,11.72
2023-04-14T11:26:55.000Z,12.84
2023-04-14T11:36:53.826Z,15.03
2023-04-14T11:46:54.052Z,12.11
2023-04-14T11:56:54.805Z,14.65
2023-04-14T12:06:54.911Z,16.59
2023-04-14T12:16:55.717Z,16.14
2023-04-14T12:26:54.781Z,14.32
2023-04-14T12:36:55.004Z,16.45
2023-04-14T12:46:55.038Z,16.92
2023-04-14T12:56:55.270Z,16.31
2023-04-14T13:06:55.360Z,17.04
2023-04-14T13:16:56.295Z,17.18
2023-04-14T13:26:55.775Z,16.62
2023-04-14T13:36:55.898Z,13.59
2023-04-14T13:46:56.133Z,17.59
2023-04-14T13:56:56.292Z,16.49
2023-04-14T14:06:56.522Z,17.08
2023-04-14T14:16:56.736Z,18.03
2023-04-14T14:26:56.908Z,18.61
2023-04-14T14:36:57.070Z,16.68
2023-04-14T14:46:57.437Z,16.62
2023-04-14T14:56:57.420Z,17.70
2023-04-14T15:06:57.930Z,17.23
2023-04-14T15:16:57.785Z,14.19
2023-04-14T15:26:58.012Z,16.11
2023-04-14T15:36:58.176Z,13.89
2023-04-14T15:46:58.383Z,13.12
2023-04-14T15:56:58.797Z,12.87
2023-04-14T16:06:58.668Z,13.62
2023-04-14T16:16:58.837Z,17.51
2023-04-14T16:26:59.049Z,17.53
2023-04-14T16:36:59.203Z,17.84
2023-04-14T16:46:59.561Z,18.31
2023-04-14T16:56:59.467Z,16.88
2023-04-14T17:06:59.683Z,18.29
2023-04-14T17:16:59.884Z,15.02
2023-04-14T17:27:00.327Z,14.25
2023-04-14T17:37:00.262Z,13.30
2023-04-14T17:47:00.458Z,12.26
2023-04-14T17:57:00.614Z,11.50
2023-04-14T18:07:00.838Z,10.77
2023-04-14T18:17:01.054Z,10.37
2023-04-14T18:28:02.825Z,9.71
2023-04-14T18:37:02.343Z,9.32
2023-04-14T18:47:01.558Z,9.16
2023-04-14T18:57:01.740Z,8.73
2023-04-14T19:07:02.202Z,8.60
2023-04-14T19:17:02.169Z,8.30
2023-04-14T19:27:02.387Z,8.10
2023-04-14T19:37:02.545Z,8.22
2023-04-14T19:47:03.465Z,7.93
2023-04-14T19:57:02.938Z,7.85
2023-04-14T20:07:03.248Z,7.71
2023-04-14T20:17:03.360Z,7.47
2023-04-14T20:27:04.323Z,6.90
2023-04-14T20:37:03.672Z,6.77
2023-04-14T20:47:04.328Z,6.38
2023-04-14T20:57:03.951Z,6.28
2023-04-14T21:07:04.202Z,6.50
2023-04-14T21:17:04.450Z,6.16
2023-04-14T21:27:04.570Z,6.10
2023-04-14T21:37:04.758Z,5.86
2023-04-14T21:47:05.001Z,5.45
2023-04-14T21:57:05.188Z,5.71
2023-04-14T22:07:05.573Z,5.57
2023-04-14T22:17:05.664Z,5.40
2023-04-14T22:27:05.709Z,5.30
2023-04-14T22:37:05.879Z,5.27
2023-04-14T22:47:06.089Z,4.98
2023-04-14T22:57:06.255Z,5.02
2023-04-14T23:07:06.507Z,4.61
2023-04-14T23:17:06.678Z,4.55
2023-04-14T23:27:06.877Z,4.28
2023-04-14T23:37:07.057Z,4.54
2023-04-14T23:47:08.493Z,4.72
2023-04-14T23:57:07.410Z,4.57
